Terminal Aerodrome Forecast
Issued by NWS Duluth, MN

Home | Current Version | Previous Version | Text Only | Print | Product List | Glossary On
Versions: 1 2 3 4 5 6 7 8 9 10 11 12 13 14 15 16 17 18 19 20 21 22 23 24 25 26 27
000
FTUS43 KDLH 182300
TAFDLH
TAF
KDLH 182335Z 1900/1924 VRB03KT P6SM SCT100
     FM190600 18005KT P6SM SCT030 BKN150 WS015/24035KT
     FM191300 20008KT P6SM FEW022 BKN060 OVC100
     FM191700 21012G18KT P6SM SCT050 OVC090=

USA.gov is the U.S. government's official web portal to all federal, state and local government web resources and services.